Time;durP1;ratioP1;P1;durP2;ratioP2;P2;SDS_P1;SDS_P2;PMS_P1;PMS_P2;Temp;Humidity;BMP_temperature;BMP_pressure;BME280_temperature;BME280_humidity;BME280_pressure;Samples;Min_cycle;Max_cycle;Signal;HPM_P1;HPM_P2
2023/10/18 00:05:10;;;;;;;27.33;13.93;;;;;;;;;;8472539;27;20043;-88
2023/10/18 00:13:39;;;;;;;25.77;12.80;;;;;;;;;;8498624;27;20062;-88
2023/10/18 00:17:45;;;;;;;27.42;14.50;;;;;;;;;;8472532;28;20661;-88
2023/10/18 00:21:50;;;;;;;30.35;14.98;;;;;;;;;;8481060;27;20680;-88
2023/10/18 00:25:53;;;;;;;27.02;12.77;;;;;;;;;;8477073;27;20537;-88
2023/10/18 00:29:58;;;;;;;24.63;13.75;;;;;;;;;;8494807;27;20055;-89
2023/10/18 00:34:01;;;;;;;37.83;16.20;;;;;;;;;;8489391;27;20056;-90
2023/10/18 00:38:08;;;;;;;31.38;14.45;;;;;;;;;;8483856;27;20047;-90
2023/10/18 00:42:25;;;;;;;28.42;13.73;;;;;;;;;;8475427;27;20499;-91
2023/10/18 00:46:29;;;;;;;23.85;12.30;;;;;;;;;;8492281;27;20047;-91
2023/10/18 00:50:37;;;;;;;26.15;12.70;;;;;;;;;;8453568;28;20495;-90
2023/10/18 00:54:44;;;;;;;28.77;12.98;;;;;;;;;;8478615;27;20139;-91
2023/10/18 00:58:47;;;;;;;23.58;12.82;;;;;;;;;;8478265;27;20062;-90
2023/10/18 01:02:54;;;;;;;30.60;12.43;;;;;;;;;;8478090;27;20051;-90
2023/10/18 01:07:07;;;;;;;25.08;12.30;;;;;;;;;;8490984;27;20047;-90
2023/10/18 01:11:18;;;;;;;24.90;12.38;;;;;;;;;;8473462;27;20058;-91
2023/10/18 01:15:23;;;;;;;24.35;12.80;;;;;;;;;;8480588;27;20052;-91
2023/10/18 01:19:26;;;;;;;28.83;13.27;;;;;;;;;;8466442;27;20055;-88
2023/10/18 01:23:29;;;;;;;27.00;13.55;;;;;;;;;;8448561;28;20079;-92
2023/10/18 01:27:36;;;;;;;32.72;13.38;;;;;;;;;;8453864;28;20122;-90
2023/10/18 01:31:44;;;;;;;25.40;13.40;;;;;;;;;;8443882;28;20136;-90
2023/10/18 01:35:51;;;;;;;33.80;14.13;;;;;;;;;;8429968;28;20052;-87
2023/10/18 01:39:54;;;;;;;29.05;13.90;;;;;;;;;;8430785;28;20201;-89
2023/10/18 01:44:05;;;;;;;32.78;14.77;;;;;;;;;;8433052;28;20134;-91
2023/10/18 01:48:09;;;;;;;30.65;14.57;;;;;;;;;;8456666;28;20055;-89
2023/10/18 01:52:17;;;;;;;34.40;15.48;;;;;;;;;;8438811;28;20131;-88
2023/10/18 01:56:21;;;;;;;39.97;16.73;;;;;;;;;;8439917;28;20059;-89
2023/10/18 02:00:29;;;;;;;31.35;16.27;;;;;;;;;;8449646;28;20080;-91
2023/10/18 02:04:37;;;;;;;32.80;15.18;;;;;;;;;;8434720;28;20091;-91
2023/10/18 02:08:41;;;;;;;27.42;15.68;;;;;;;;;;8428738;28;20064;-90
2023/10/18 02:12:44;;;;;;;39.65;19.80;;;;;;;;;;8436786;28;20052;-92
2023/10/18 02:16:48;;;;;;;40.60;20.05;;;;;;;;;;8447864;28;20558;-91
2023/10/18 02:20:52;;;;;;;45.70;19.77;;;;;;;;;;8429534;28;20131;-90
2023/10/18 02:24:56;;;;;;;41.58;16.80;;;;;;;;;;8433621;28;20054;-92
2023/10/18 02:28:59;;;;;;;53.80;22.90;;;;;;;;;;8423709;28;20511;-89
2023/10/18 02:33:04;;;;;;;50.85;20.02;;;;;;;;;;8451632;28;20552;-91
2023/10/18 02:37:11;;;;;;;52.50;21.20;;;;;;;;;;8487293;27;20059;-91
2023/10/18 02:41:19;;;;;;;42.28;19.15;;;;;;;;;;8483777;27;20063;-89
2023/10/18 02:45:22;;;;;;;41.75;17.30;;;;;;;;;;8493451;27;20143;-90
2023/10/18 02:49:27;;;;;;;44.40;18.92;;;;;;;;;;8483215;27;20183;-90
2023/10/18 02:53:30;;;;;;;45.15;20.13;;;;;;;;;;8484694;27;20055;-89
2023/10/18 02:57:33;;;;;;;47.42;20.75;;;;;;;;;;8474725;27;20058;-90
2023/10/18 03:01:39;;;;;;;41.72;16.95;;;;;;;;;;8495343;27;20522;-92
2023/10/18 03:05:44;;;;;;;32.22;16.35;;;;;;;;;;8451898;27;20055;-90
2023/10/18 03:09:49;;;;;;;42.80;17.33;;;;;;;;;;8463899;28;20051;-91
2023/10/18 03:13:52;;;;;;;40.30;18.65;;;;;;;;;;8439354;28;20081;-91
2023/10/18 03:17:56;;;;;;;41.90;20.08;;;;;;;;;;8463401;27;20060;-89
2023/10/18 03:22:03;;;;;;;56.45;23.90;;;;;;;;;;8449843;27;20079;-90
2023/10/18 03:26:12;;;;;;;48.25;21.63;;;;;;;;;;8494469;27;20055;-91
2023/10/18 03:30:19;;;;;;;54.10;20.33;;;;;;;;;;8485525;27;20047;-91
2023/10/18 03:34:41;;;;;;;52.58;19.85;;;;;;;;;;8500628;27;20055;-91
2023/10/18 03:39:00;;;;;;;55.65;20.73;;;;;;;;;;8475334;22;20079;-91
2023/10/18 03:43:09;;;;;;;43.67;19.63;;;;;;;;;;8495661;27;20070;-91
2023/10/18 03:47:13;;;;;;;42.58;18.90;;;;;;;;;;8460039;27;20039;-90
2023/10/18 03:51:23;;;;;;;39.75;18.17;;;;;;;;;;8455125;27;20104;-90
2023/10/18 03:55:36;;;;;;;39.75;20.25;;;;;;;;;;8486979;27;20071;-90
2023/10/18 03:59:41;;;;;;;61.83;28.98;;;;;;;;;;8452371;28;20119;-91
2023/10/18 04:03:45;;;;;;;59.85;25.27;;;;;;;;;;8461765;27;20113;-90
2023/10/18 04:07:48;;;;;;;44.67;19.27;;;;;;;;;;8471700;27;20091;-91
2023/10/18 04:11:53;;;;;;;42.05;19.77;;;;;;;;;;8485901;27;20457;-91
2023/10/18 04:16:04;;;;;;;61.38;30.05;;;;;;;;;;8459296;27;20078;-90
2023/10/18 04:20:22;;;;;;;73.25;28.10;;;;;;;;;;8483888;27;20057;-90
2023/10/18 04:24:26;;;;;;;90.78;35.38;;;;;;;;;;8460833;27;20064;-90
2023/10/18 04:28:37;;;;;;;79.65;31.10;;;;;;;;;;8478889;27;20059;-91
2023/10/18 04:32:40;;;;;;;56.97;25.87;;;;;;;;;;8490716;27;20043;-90
2023/10/18 04:36:43;;;;;;;43.95;22.65;;;;;;;;;;8485933;27;20520;-90
2023/10/18 04:40:52;;;;;;;47.10;23.05;;;;;;;;;;8499200;27;20131;-91
2023/10/18 04:44:57;;;;;;;51.65;21.90;;;;;;;;;;8461158;27;20063;-89
2023/10/18 04:49:36;;;;;;;121.10;39.30;;;;;;;;;;8490399;27;20116;-89
2023/10/18 04:53:42;;;;;;;70.43;27.35;;;;;;;;;;8467743;27;20070;-90
2023/10/18 04:57:47;;;;;;;131.98;39.92;;;;;;;;;;8473731;27;20094;-92
2023/10/18 05:01:57;;;;;;;59.45;27.77;;;;;;;;;;8477475;27;20415;-90
2023/10/18 05:06:00;;;;;;;55.85;22.80;;;;;;;;;;8496544;27;20413;-90
2023/10/18 05:10:13;;;;;;;73.00;30.38;;;;;;;;;;8472068;28;20082;-90
2023/10/18 05:14:35;;;;;;;;;;;;;;;;;;8466438;27;20137;-90
2023/10/18 05:18:39;;;;;;;;;;;;;;;;;;8453532;28;19920;-90
2023/10/18 05:22:44;;;;;;;101.90;38.53;;;;;;;;;;8463600;28;20018;-90
2023/10/18 05:26:54;;;;;;;49.53;24.30;;;;;;;;;;8466351;28;20051;-90
2023/10/18 05:35:21;;;;;;;69.85;31.70;;;;;;;;;;8464841;28;20493;-91
2023/10/18 05:39:48;;;;;;;76.80;31.23;;;;;;;;;;8483708;28;20126;-90
2023/10/18 05:43:51;;;;;;;75.82;27.08;;;;;;;;;;8474897;28;20161;-91
2023/10/18 05:47:54;;;;;;;;;;;;;;;;;;8483602;28;20560;-89
2023/10/18 05:52:15;;;;;;;188.65;61.20;;;;;;;;;;8468280;28;20347;-91
2023/10/18 05:56:22;;;;;;;225.50;77.40;;;;;;;;;;8462905;28;20051;-91
2023/10/18 06:00:26;;;;;;;181.25;63.67;;;;;;;;;;8458560;28;20070;-90
2023/10/18 06:04:37;;;;;;;141.20;49.75;;;;;;;;;;8458888;28;20051;-89
2023/10/18 06:08:42;;;;;;;128.60;45.47;;;;;;;;;;8458237;28;20399;-89
2023/10/18 06:12:48;;;;;;;106.15;39.78;;;;;;;;;;8473620;28;20100;-88
2023/10/18 06:16:52;;;;;;;164.57;50.47;;;;;;;;;;8482249;28;20387;-90
2023/10/18 06:20:58;;;;;;;88.78;35.97;;;;;;;;;;8464262;28;20045;-89
2023/10/18 06:25:04;;;;;;;62.20;26.92;;;;;;;;;;8475572;28;20095;-91
2023/10/18 06:29:11;;;;;;;121.68;40.95;;;;;;;;;;8477206;28;20051;-89
2023/10/18 06:33:15;;;;;;;55.80;25.40;;;;;;;;;;8462421;27;20512;-90
2023/10/18 06:37:22;;;;;;;65.05;28.08;;;;;;;;;;8491361;27;20062;-90
2023/10/18 06:41:29;;;;;;;150.73;49.38;;;;;;;;;;8501698;27;20150;-91
2023/10/18 06:45:33;;;;;;;148.07;52.72;;;;;;;;;;8477932;27;20060;-89
2023/10/18 06:49:36;;;;;;;104.15;38.88;;;;;;;;;;8492179;27;20450;-91
2023/10/18 06:53:40;;;;;;;190.38;63.75;;;;;;;;;;8459605;28;20081;-92
2023/10/18 06:57:49;;;;;;;110.28;40.90;;;;;;;;;;8488962;27;20051;-91
2023/10/18 07:01:57;;;;;;;81.78;36.58;;;;;;;;;;8502535;27;20058;-90
2023/10/18 07:06:04;;;;;;;43.45;25.52;;;;;;;;;;8487553;27;20052;-90
2023/10/18 07:10:19;;;;;;;40.53;25.15;;;;;;;;;;8488808;27;20510;-92
2023/10/18 07:14:24;;;;;;;60.80;30.85;;;;;;;;;;8477198;27;20062;-91
2023/10/18 07:18:28;;;;;;;48.33;25.13;;;;;;;;;;8469216;27;20139;-92
2023/10/18 07:22:44;;;;;;;37.58;23.17;;;;;;;;;;8501235;27;20055;-91
2023/10/18 07:26:47;;;;;;;34.40;19.92;;;;;;;;;;8471825;27;20130;-92
2023/10/18 07:30:55;;;;;;;29.83;17.80;;;;;;;;;;8487546;27;20499;-93
2023/10/18 07:35:00;;;;;;;22.27;13.50;;;;;;;;;;8459511;27;20055;-90
2023/10/18 07:39:04;;;;;;;32.85;18.60;;;;;;;;;;8501616;27;20068;-92
2023/10/18 07:43:12;;;;;;;20.85;13.15;;;;;;;;;;8486481;27;20054;-92
2023/10/18 07:47:19;;;;;;;19.80;13.00;;;;;;;;;;8490082;27;20696;-91
2023/10/18 07:51:26;;;;;;;18.88;12.35;;;;;;;;;;8471509;27;20050;-89
2023/10/18 07:55:36;;;;;;;22.45;12.10;;;;;;;;;;8501027;27;20051;-89
2023/10/18 07:59:45;;;;;;;22.13;13.47;;;;;;;;;;8460833;27;20494;-93
2023/10/18 08:03:51;;;;;;;20.08;12.35;;;;;;;;;;8471915;27;20130;-88
2023/10/18 08:07:55;;;;;;;23.10;13.43;;;;;;;;;;8488637;27;20078;-94
2023/10/18 08:12:05;;;;;;;21.73;12.32;;;;;;;;;;8499436;27;20533;-92
2023/10/18 08:16:10;;;;;;;88.57;31.80;;;;;;;;;;8491226;27;20105;-92
2023/10/18 08:24:41;;;;;;;65.30;23.08;;;;;;;;;;8492416;27;20546;-90
2023/10/18 08:28:46;;;;;;;40.72;16.30;;;;;;;;;;8484296;27;20151;-91
2023/10/18 08:32:51;;;;;;;32.17;14.10;;;;;;;;;;8473978;27;20078;-91
2023/10/18 08:37:03;;;;;;;21.50;10.70;;;;;;;;;;8477357;27;20058;-92
2023/10/18 08:41:13;;;;;;;38.58;15.80;;;;;;;;;;8460870;28;20172;-92
2023/10/18 08:45:21;;;;;;;26.02;11.50;;;;;;;;;;8467043;28;20074;-89
2023/10/18 08:49:25;;;;;;;36.53;13.90;;;;;;;;;;8464345;28;20334;-91
2023/10/18 08:53:33;;;;;;;45.70;15.00;;;;;;;;;;8468568;27;20783;-92
2023/10/18 08:57:36;;;;;;;18.23;10.30;;;;;;;;;;8468936;28;20063;-94
2023/10/18 09:02:02;;;;;;;321.35;103.63;;;;;;;;;;8448556;28;20055;-93
2023/10/18 09:06:05;;;;;;;15.82;9.57;;;;;;;;;;8472258;27;20054;-93
2023/10/18 09:15:27;;;;;;;15.40;8.45;;;;;;;;;;8462845;28;20075;-91
2023/10/18 09:19:38;;;;;;;13.82;7.38;;;;;;;;;;8453333;22;20052;-90
2023/10/18 09:23:59;;;;;;;12.77;7.10;;;;;;;;;;8371451;28;20060;-94
2023/10/18 09:32:32;;;;;;;10.32;6.35;;;;;;;;;;8333956;28;20152;-95
2023/10/18 09:37:00;;;;;;;11.98;6.47;;;;;;;;;;8342936;28;20144;-89
2023/10/18 09:41:12;;;;;;;10.60;6.38;;;;;;;;;;8349593;28;20068;-93
2023/10/18 09:45:20;;;;;;;12.23;7.18;;;;;;;;;;8338304;28;20466;-90
2023/10/18 09:49:25;;;;;;;8.88;5.00;;;;;;;;;;8347856;28;20052;-88
2023/10/18 09:53:30;;;;;;;8.00;4.80;;;;;;;;;;8349138;28;20046;-89
2023/10/18 09:57:40;;;;;;;8.35;4.70;;;;;;;;;;8342870;28;20583;-90
2023/10/18 10:02:08;;;;;;;17.92;8.05;;;;;;;;;;8345228;28;20061;-92
2023/10/18 10:06:14;;;;;;;35.58;10.52;;;;;;;;;;8351155;28;20061;-93
2023/10/18 10:10:19;;;;;;;32.22;10.13;;;;;;;;;;8349086;28;20063;-92
2023/10/18 10:14:23;;;;;;;47.05;22.30;;;;;;;;;;8354316;28;20135;-92
2023/10/18 10:18:30;;;;;;;40.58;15.82;;;;;;;;;;8356630;28;20056;-91
2023/10/18 10:22:37;;;;;;;13.30;4.93;;;;;;;;;;8338920;28;20060;-93
2023/10/18 10:26:43;;;;;;;27.80;10.68;;;;;;;;;;8334339;28;20572;-91
2023/10/18 10:30:50;;;;;;;21.55;9.35;;;;;;;;;;8356646;28;20053;-91
2023/10/18 10:35:16;;;;;;;10.90;6.32;;;;;;;;;;8333260;28;20077;-94
2023/10/18 10:39:30;;;;;;;9.90;4.95;;;;;;;;;;8360366;28;20102;-89
2023/10/18 10:44:22;;;;;;;8.85;4.80;;;;;;;;;;8352085;28;20049;-92
2023/10/18 10:48:32;;;;;;;;;;;;;;;;;;8351487;28;20386;-92
2023/10/18 10:52:40;;;;;;;215.40;50.00;;;;;;;;;;8336262;28;19971;-92
2023/10/18 10:56:53;;;;;;;10.63;4.78;;;;;;;;;;8338516;28;20053;-93
2023/10/18 11:01:04;;;;;;;8.98;4.85;;;;;;;;;;8341212;28;20061;-92
2023/10/18 11:05:16;;;;;;;8.55;4.10;;;;;;;;;;8333390;28;20149;-92
2023/10/18 11:09:21;;;;;;;7.68;4.05;;;;;;;;;;8356111;28;20053;-90
2023/10/18 11:13:30;;;;;;;8.50;3.92;;;;;;;;;;8360003;28;20072;-93
2023/10/18 11:17:35;;;;;;;7.43;3.90;;;;;;;;;;8360089;28;20493;-91
2023/10/18 11:21:38;;;;;;;8.30;4.63;;;;;;;;;;8345309;28;20513;-93
2023/10/18 11:25:41;;;;;;;7.82;4.07;;;;;;;;;;8332510;28;20486;-92
2023/10/18 11:29:52;;;;;;;12.98;5.72;;;;;;;;;;8345310;28;20072;-91
2023/10/18 11:33:59;;;;;;;9.85;4.43;;;;;;;;;;8318351;28;20065;-90
2023/10/18 11:38:02;;;;;;;9.27;4.53;;;;;;;;;;8325999;28;20116;-92
2023/10/18 11:42:06;;;;;;;8.38;4.43;;;;;;;;;;8313390;28;20069;-91
2023/10/18 11:46:13;;;;;;;8.48;4.97;;;;;;;;;;8314155;28;20058;-89
2023/10/18 11:50:16;;;;;;;12.05;6.50;;;;;;;;;;8320959;28;20386;-92
2023/10/18 11:54:33;;;;;;;13.82;5.72;;;;;;;;;;8303275;28;20104;-89
2023/10/18 11:58:37;;;;;;;10.02;5.78;;;;;;;;;;8312255;28;20488;-92
2023/10/18 12:02:43;;;;;;;13.10;5.65;;;;;;;;;;8311646;28;20054;-92
2023/10/18 12:06:49;;;;;;;9.25;5.28;;;;;;;;;;8309205;28;20046;-93
2023/10/18 12:10:58;;;;;;;8.23;4.88;;;;;;;;;;8324400;28;20061;-93
2023/10/18 12:15:06;;;;;;;9.75;5.40;;;;;;;;;;8331842;28;20477;-91
2023/10/18 12:19:13;;;;;;;12.52;6.28;;;;;;;;;;8295704;28;20072;-91
2023/10/18 12:23:18;;;;;;;11.90;5.00;;;;;;;;;;8318688;28;20116;-93
2023/10/18 12:27:33;;;;;;;9.35;4.55;;;;;;;;;;8312487;28;20049;-95
2023/10/18 12:31:39;;;;;;;9.40;4.82;;;;;;;;;;8341454;28;20115;-93
2023/10/18 12:35:48;;;;;;;9.07;5.10;;;;;;;;;;8357032;28;20083;-91
2023/10/18 12:39:51;;;;;;;16.52;7.15;;;;;;;;;;8352300;28;20542;-92
2023/10/18 12:43:54;;;;;;;10.48;5.18;;;;;;;;;;8352022;28;20048;-92
2023/10/18 12:48:09;;;;;;;8.45;4.57;;;;;;;;;;8353069;28;20135;-93
2023/10/18 12:52:44;;;;;;;7.68;4.97;;;;;;;;;;8358963;28;20110;-93
2023/10/18 12:56:56;;;;;;;8.52;5.00;;;;;;;;;;8352805;28;20056;-93
2023/10/18 13:01:05;;;;;;;8.98;5.20;;;;;;;;;;8352031;28;20072;-94
2023/10/18 13:05:10;;;;;;;13.80;5.13;;;;;;;;;;8345255;28;20085;-93
2023/10/18 13:09:22;;;;;;;11.05;5.50;;;;;;;;;;8345290;28;20052;-92
2023/10/18 13:13:30;;;;;;;10.13;6.43;;;;;;;;;;8355280;28;20053;-91
2023/10/18 13:17:32;;;;;;;9.73;5.25;;;;;;;;;;8351972;28;20052;-89
2023/10/18 13:21:39;;;;;;;9.88;5.28;;;;;;;;;;8343980;28;20132;-93
2023/10/18 13:25:51;;;;;;;12.82;6.28;;;;;;;;;;8351428;28;20059;-92
2023/10/18 13:30:04;;;;;;;10.13;5.82;;;;;;;;;;8351563;28;20064;-94
2023/10/18 13:34:17;;;;;;;9.65;5.32;;;;;;;;;;8356315;28;20081;-89
2023/10/18 13:38:23;;;;;;;11.85;5.78;;;;;;;;;;8349309;28;20061;-92
2023/10/18 13:42:28;;;;;;;9.15;5.40;;;;;;;;;;8357082;28;20067;-94
2023/10/18 13:46:31;;;;;;;10.43;5.20;;;;;;;;;;8357295;28;20527;-93
2023/10/18 13:50:37;;;;;;;12.13;6.03;;;;;;;;;;8370956;28;20083;-91
2023/10/18 13:54:41;;;;;;;12.27;6.50;;;;;;;;;;8370682;28;20131;-93
2023/10/18 13:58:46;;;;;;;8.02;5.13;;;;;;;;;;8371177;28;20059;-90
2023/10/18 14:02:49;;;;;;;8.68;4.45;;;;;;;;;;8369941;28;20462;-89
2023/10/18 14:06:54;;;;;;;7.40;4.57;;;;;;;;;;8370673;28;20053;-93
2023/10/18 14:10:58;;;;;;;13.27;5.88;;;;;;;;;;8370877;28;20061;-92
2023/10/18 14:15:03;;;;;;;11.80;4.93;;;;;;;;;;8370393;28;20057;-92
2023/10/18 14:19:06;;;;;;;11.20;5.40;;;;;;;;;;8370122;28;20143;-93
2023/10/18 14:23:09;;;;;;;10.50;5.38;;;;;;;;;;8370235;28;20472;-93
2023/10/18 14:27:12;;;;;;;12.40;4.93;;;;;;;;;;8369738;28;20057;-92
2023/10/18 14:31:20;;;;;;;9.13;4.93;;;;;;;;;;8370151;28;20064;-88
2023/10/18 14:35:25;;;;;;;10.27;4.95;;;;;;;;;;8356793;28;20073;-92
2023/10/18 14:39:28;;;;;;;12.02;6.13;;;;;;;;;;8369425;28;20061;-93
2023/10/18 14:43:31;;;;;;;12.10;6.25;;;;;;;;;;8369773;28;20052;-92
2023/10/18 14:47:38;;;;;;;13.82;7.53;;;;;;;;;;8367849;28;20045;-93
2023/10/18 14:51:44;;;;;;;13.02;6.40;;;;;;;;;;8356889;28;20052;-92
2023/10/18 14:55:47;;;;;;;19.85;10.90;;;;;;;;;;8368956;28;20075;-90
2023/10/18 14:59:50;;;;;;;29.08;16.70;;;;;;;;;;8368681;28;20045;-91
2023/10/18 15:03:54;;;;;;;10.43;6.43;;;;;;;;;;8369067;28;20102;-90
2023/10/18 15:07:58;;;;;;;11.07;6.88;;;;;;;;;;8368791;28;20061;-91
2023/10/18 15:12:01;;;;;;;10.95;4.65;;;;;;;;;;8368694;28;20127;-91
2023/10/18 15:16:06;;;;;;;9.45;4.20;;;;;;;;;;8369189;28;20413;-92
2023/10/18 15:20:12;;;;;;;8.73;4.47;;;;;;;;;;8354918;28;20109;-91
2023/10/18 15:24:15;;;;;;;9.20;4.47;;;;;;;;;;8368796;28;20102;-91
2023/10/18 15:28:18;;;;;;;6.88;4.68;;;;;;;;;;8368500;28;20061;-92
2023/10/18 15:32:22;;;;;;;8.60;4.78;;;;;;;;;;8367699;28;20053;-92
2023/10/18 15:36:26;;;;;;;9.68;4.82;;;;;;;;;;8352253;28;20049;-94
2023/10/18 15:40:30;;;;;;;7.97;4.47;;;;;;;;;;8353017;28;20119;-90
2023/10/18 15:44:33;;;;;;;8.98;4.65;;;;;;;;;;8342933;28;20132;-94
2023/10/18 15:48:36;;;;;;;10.50;5.10;;;;;;;;;;8359739;28;20455;-92
2023/10/18 15:52:40;;;;;;;11.75;6.07;;;;;;;;;;8355210;28;20057;-89
2023/10/18 15:56:44;;;;;;;15.07;7.78;;;;;;;;;;8353375;28;20103;-90
2023/10/18 16:00:47;;;;;;;54.45;31.73;;;;;;;;;;8354418;28;20136;-89
2023/10/18 16:04:51;;;;;;;55.10;29.75;;;;;;;;;;8344850;28;20304;-92
2023/10/18 16:09:09;;;;;;;55.40;29.65;;;;;;;;;;8350716;28;20064;-94
2023/10/18 16:13:24;;;;;;;50.90;24.08;;;;;;;;;;8351586;28;20049;-91
2023/10/18 16:17:28;;;;;;;168.73;66.00;;;;;;;;;;8353261;28;20405;-93
2023/10/18 16:21:32;;;;;;;179.82;67.95;;;;;;;;;;8350286;28;20563;-92
2023/10/18 16:25:48;;;;;;;145.52;64.90;;;;;;;;;;8356672;28;20048;-88
2023/10/18 16:29:52;;;;;;;177.50;65.78;;;;;;;;;;8349168;28;20061;-89
2023/10/18 16:33:56;;;;;;;94.25;44.55;;;;;;;;;;8348478;28;20098;-93
2023/10/18 16:38:00;;;;;;;66.88;31.45;;;;;;;;;;8343668;28;20147;-89
2023/10/18 16:42:04;;;;;;;151.43;57.38;;;;;;;;;;8368127;28;20081;-91
2023/10/18 16:46:09;;;;;;;172.95;58.00;;;;;;;;;;8362418;28;20140;-90
2023/10/18 16:50:14;;;;;;;98.93;41.58;;;;;;;;;;8358387;28;20123;-88
2023/10/18 16:54:21;;;;;;;113.85;45.03;;;;;;;;;;8348356;28;20141;-89
2023/10/18 16:58:29;;;;;;;90.78;40.05;;;;;;;;;;8343414;28;20049;-91
2023/10/18 17:02:37;;;;;;;66.32;32.30;;;;;;;;;;8353252;28;20061;-93
2023/10/18 17:06:44;;;;;;;53.63;26.98;;;;;;;;;;8346242;28;20110;-92
2023/10/18 17:10:52;;;;;;;123.97;48.60;;;;;;;;;;8349675;28;20136;-86
2023/10/18 17:14:58;;;;;;;69.35;33.83;;;;;;;;;;8342207;28;20053;-87
2023/10/18 17:19:03;;;;;;;44.70;23.45;;;;;;;;;;8349531;28;20137;-92
2023/10/18 17:23:14;;;;;;;28.50;16.33;;;;;;;;;;8352219;28;20116;-88
2023/10/18 17:27:20;;;;;;;35.80;18.83;;;;;;;;;;8367650;28;20049;-88
2023/10/18 17:31:25;;;;;;;288.42;82.43;;;;;;;;;;8333616;28;20069;-91
2023/10/18 17:35:31;;;;;;;123.57;48.63;;;;;;;;;;8323927;28;20045;-90
2023/10/18 17:39:36;;;;;;;348.40;102.07;;;;;;;;;;8342964;28;20401;-88
2023/10/18 17:43:41;;;;;;;89.70;44.70;;;;;;;;;;8326723;28;20060;-93
2023/10/18 17:47:51;;;;;;;209.95;79.47;;;;;;;;;;8330798;28;20087;-90
2023/10/18 17:51:56;;;;;;;257.42;79.00;;;;;;;;;;8318337;28;20519;-91
2023/10/18 17:56:04;;;;;;;63.55;27.58;;;;;;;;;;8317511;28;20485;-92
2023/10/18 18:00:20;;;;;;;272.88;84.25;;;;;;;;;;8325555;28;20053;-93
2023/10/18 18:04:30;;;;;;;446.65;138.77;;;;;;;;;;8330807;28;20062;-90
2023/10/18 18:08:35;;;;;;;249.75;74.60;;;;;;;;;;8327874;28;20049;-94
2023/10/18 18:12:42;;;;;;;314.42;78.32;;;;;;;;;;8326886;28;20046;-91
2023/10/18 18:16:47;;;;;;;67.05;27.73;;;;;;;;;;8319254;28;20054;-93
2023/10/18 18:20:57;;;;;;;50.33;21.42;;;;;;;;;;8326957;28;20106;-92
2023/10/18 18:25:05;;;;;;;31.10;16.95;;;;;;;;;;8345402;28;20096;-93
2023/10/18 18:29:10;;;;;;;286.40;65.55;;;;;;;;;;8334394;28;20049;-90
2023/10/18 18:33:15;;;;;;;208.95;53.35;;;;;;;;;;8370465;28;20053;-91
2023/10/18 18:37:22;;;;;;;64.03;25.90;;;;;;;;;;8370668;28;20455;-89
2023/10/18 18:41:27;;;;;;;44.78;22.98;;;;;;;;;;8371734;28;20126;-92
2023/10/18 18:45:31;;;;;;;118.10;47.60;;;;;;;;;;8370653;28;20044;-88
2023/10/18 18:49:36;;;;;;;254.05;71.50;;;;;;;;;;8369860;28;20084;-91
2023/10/18 18:53:44;;;;;;;651.35;156.52;;;;;;;;;;8374704;28;20064;-91
2023/10/18 18:57:51;;;;;;;270.73;70.38;;;;;;;;;;8372877;28;20052;-91
2023/10/18 19:01:55;;;;;;;447.67;116.18;;;;;;;;;;8373014;28;20072;-91
2023/10/18 19:06:05;;;;;;;201.88;57.38;;;;;;;;;;8370932;28;20061;-91
2023/10/18 19:10:17;;;;;;;354.58;98.85;;;;;;;;;;8369746;28;20139;-90
2023/10/18 19:14:22;;;;;;;234.63;74.23;;;;;;;;;;8356152;28;20052;-93
2023/10/18 19:18:28;;;;;;;49.22;23.35;;;;;;;;;;8356547;28;20460;-93
2023/10/18 19:22:35;;;;;;;234.70;69.63;;;;;;;;;;8348638;28;20057;-93
2023/10/18 19:26:43;;;;;;;174.25;53.60;;;;;;;;;;8350240;28;20493;-93
2023/10/18 19:30:48;;;;;;;54.50;23.58;;;;;;;;;;8368395;28;20076;-92
2023/10/18 19:34:52;;;;;;;196.10;58.92;;;;;;;;;;8356053;28;20053;-91
2023/10/18 19:38:59;;;;;;;202.23;61.72;;;;;;;;;;8368004;28;20099;-91
2023/10/18 19:43:07;;;;;;;116.45;43.20;;;;;;;;;;8368416;28;20059;-90
2023/10/18 19:47:12;;;;;;;55.70;23.95;;;;;;;;;;8368328;28;20053;-92
2023/10/18 19:51:17;;;;;;;50.13;23.45;;;;;;;;;;8355117;28;20574;-92
2023/10/18 19:55:21;;;;;;;65.25;27.42;;;;;;;;;;8368013;28;20048;-92
2023/10/18 19:59:28;;;;;;;58.55;26.90;;;;;;;;;;8354614;28;20519;-93
2023/10/18 20:03:33;;;;;;;52.05;23.25;;;;;;;;;;8368151;28;20048;-93
2023/10/18 20:07:36;;;;;;;46.30;22.58;;;;;;;;;;8358989;28;20055;-91
2023/10/18 20:11:40;;;;;;;48.35;21.98;;;;;;;;;;8367486;28;20052;-93
2023/10/18 20:15:45;;;;;;;51.65;24.92;;;;;;;;;;8354390;28;20140;-91
2023/10/18 20:19:48;;;;;;;43.95;21.50;;;;;;;;;;8366666;28;20250;-92
2023/10/18 20:23:55;;;;;;;49.38;22.75;;;;;;;;;;8354216;28;20473;-91
2023/10/18 20:28:00;;;;;;;51.50;21.73;;;;;;;;;;8367441;28;20061;-93
2023/10/18 20:32:05;;;;;;;47.08;21.45;;;;;;;;;;8366902;28;20076;-93
2023/10/18 20:36:09;;;;;;;46.47;21.77;;;;;;;;;;8367033;28;20114;-90
2023/10/18 20:40:14;;;;;;;51.50;23.30;;;;;;;;;;8365889;28;20431;-93
2023/10/18 20:44:26;;;;;;;113.45;45.45;;;;;;;;;;8366320;28;20053;-89
2023/10/18 20:48:31;;;;;;;63.70;25.15;;;;;;;;;;8366301;28;20577;-91
2023/10/18 20:52:34;;;;;;;85.05;37.20;;;;;;;;;;8366360;28;20063;-92
2023/10/18 20:56:37;;;;;;;86.93;39.42;;;;;;;;;;8366225;28;20083;-93
2023/10/18 21:00:43;;;;;;;106.10;33.50;;;;;;;;;;8365243;28;20049;-90
2023/10/18 21:04:47;;;;;;;95.35;32.85;;;;;;;;;;8365536;28;20049;-94
2023/10/18 21:08:50;;;;;;;82.85;30.30;;;;;;;;;;8365515;28;20053;-89
2023/10/18 21:12:53;;;;;;;59.97;27.67;;;;;;;;;;8364996;28;20419;-91
2023/10/18 21:16:56;;;;;;;45.63;20.98;;;;;;;;;;8363568;28;20096;-90
2023/10/18 21:21:05;;;;;;;56.42;23.83;;;;;;;;;;8365492;28;20056;-91
2023/10/18 21:25:09;;;;;;;51.63;23.00;;;;;;;;;;8364516;28;20052;-92
2023/10/18 21:29:12;;;;;;;50.75;22.98;;;;;;;;;;8364922;28;20077;-92
2023/10/18 21:33:15;;;;;;;47.50;20.88;;;;;;;;;;8340491;28;20113;-92
2023/10/18 21:37:19;;;;;;;46.85;19.27;;;;;;;;;;8364912;28;20055;-93
2023/10/18 21:41:22;;;;;;;49.70;20.88;;;;;;;;;;8351623;28;20050;-90
2023/10/18 21:45:26;;;;;;;42.83;19.63;;;;;;;;;;8368016;28;20053;-91
2023/10/18 21:49:32;;;;;;;48.55;21.35;;;;;;;;;;8351374;28;20061;-93
2023/10/18 21:53:39;;;;;;;46.17;20.30;;;;;;;;;;8365195;28;20130;-93
2023/10/18 21:57:44;;;;;;;42.95;20.90;;;;;;;;;;8364546;28;20064;-91
2023/10/18 22:01:51;;;;;;;48.83;21.30;;;;;;;;;;8366761;28;20057;-91
2023/10/18 22:06:01;;;;;;;43.63;19.77;;;;;;;;;;8358413;28;20045;-92
2023/10/18 22:10:10;;;;;;;42.22;19.83;;;;;;;;;;8370966;28;20056;-90
2023/10/18 22:14:18;;;;;;;47.35;22.08;;;;;;;;;;8371085;28;20098;-91
2023/10/18 22:18:21;;;;;;;44.10;20.08;;;;;;;;;;8370269;28;20416;-92
2023/10/18 22:22:28;;;;;;;40.70;17.20;;;;;;;;;;8370825;28;20056;-92
2023/10/18 22:26:38;;;;;;;34.30;15.38;;;;;;;;;;8370104;28;20075;-92
2023/10/18 22:30:43;;;;;;;44.75;19.33;;;;;;;;;;8357893;28;20051;-89
2023/10/18 22:34:49;;;;;;;46.95;19.95;;;;;;;;;;8370750;28;20136;-91
2023/10/18 22:38:53;;;;;;;45.80;20.35;;;;;;;;;;8370555;28;20078;-90
2023/10/18 22:42:58;;;;;;;46.13;21.80;;;;;;;;;;8370153;28;20140;-93
2023/10/18 22:47:19;;;;;;;38.83;19.63;;;;;;;;;;8369804;28;20057;-90
2023/10/18 22:51:33;;;;;;;46.40;18.55;;;;;;;;;;8369132;28;20504;-90
2023/10/18 22:55:36;;;;;;;45.28;20.17;;;;;;;;;;8370082;28;20060;-91
2023/10/18 22:59:41;;;;;;;45.72;18.95;;;;;;;;;;8369120;28;20499;-91
2023/10/18 23:03:43;;;;;;;47.00;19.63;;;;;;;;;;8354778;28;20052;-91
2023/10/18 23:07:51;;;;;;;41.67;19.55;;;;;;;;;;8356075;28;20052;-92
2023/10/18 23:11:57;;;;;;;37.20;16.63;;;;;;;;;;8369184;28;20059;-91
2023/10/18 23:16:09;;;;;;;38.05;15.77;;;;;;;;;;8368895;28;20191;-91
2023/10/18 23:20:18;;;;;;;40.28;16.60;;;;;;;;;;8368651;28;20053;-91
2023/10/18 23:24:33;;;;;;;41.40;16.58;;;;;;;;;;8368777;28;20128;-91
2023/10/18 23:28:45;;;;;;;50.20;20.27;;;;;;;;;;8368210;28;20052;-91
2023/10/18 23:32:59;;;;;;;48.08;20.38;;;;;;;;;;8368694;28;20053;-91
2023/10/18 23:37:11;;;;;;;40.97;20.35;;;;;;;;;;8355010;28;20049;-91
2023/10/18 23:41:31;;;;;;;;;;;;;;;;;;8368728;28;20056;-90
2023/10/18 23:45:34;;;;;;;50.47;21.15;;;;;;;;;;8367875;28;19994;-92
2023/10/18 23:49:58;;;;;;;52.13;19.85;;;;;;;;;;8367739;28;20057;-92
2023/10/18 23:54:04;;;;;;;36.47;17.90;;;;;;;;;;8367736;28;20507;-93
2023/10/18 23:58:08;;;;;;;29.52;14.07;;;;;;;;;;8361239;28;20053;-91
